< < Back
Terminal Aerodrome Forecast


Current Version              Previous Versions:   1  2  3  4  5  6  7  8  9  

Terminal Aerodrome Forecast

115
FTUS44 KMOB 302300
TAFMOB
TAF
KMOB 302332Z 3100/3124 02006KT P6SM SKC
     FM311600 03004KT P6SM BKN120=



Latest METAR

206
SAUS80 KWBC 010200 RRI
MTRMOB
METAR KMOB 010156Z 00000KT 10SM BKN250 24/19 A3001 RMK AO2 SLP158
T02440189


USA.gov is the U.S. government's official web portal to all federal, state and local government web resources and services.